Time;durP1;ratioP1;P1;durP2;ratioP2;P2;SDS_P1;SDS_P2;PMS_P1;PMS_P2;Temp;Humidity;BMP_temperature;BMP_pressure;BME280_temperature;BME280_humidity;BME280_pressure;Samples;Min_cycle;Max_cycle;Signal;HPM_P1;HPM_P2
2024/01/13 00:00:25;;;;;;;5.18;1.75;;;;;;;;;;5034053;28;20067;-71
2024/01/13 00:03:10;;;;;;;7.22;1.63;;;;;;;;;;5033928;28;20100;-71
2024/01/13 00:05:56;;;;;;;11.15;2.25;;;;;;;;;;5022088;28;20441;-70
2024/01/13 00:08:41;;;;;;;8.05;1.40;;;;;;;;;;5033610;28;20021;-70
2024/01/13 00:11:27;;;;;;;5.05;1.35;;;;;;;;;;5032979;28;20067;-70
2024/01/13 00:14:13;;;;;;;1.92;1.75;;;;;;;;;;5033352;28;20056;-70
2024/01/13 00:16:59;;;;;;;8.10;2.25;;;;;;;;;;5033390;28;20468;-71
2024/01/13 00:19:44;;;;;;;7.20;1.75;;;;;;;;;;5032149;28;20024;-70
2024/01/13 00:22:30;;;;;;;8.93;2.42;;;;;;;;;;5033694;28;20017;-70
2024/01/13 00:25:16;;;;;;;7.00;1.77;;;;;;;;;;5034741;28;20022;-71
2024/01/13 00:28:01;;;;;;;9.30;2.28;;;;;;;;;;5033160;28;20032;-71
2024/01/13 00:30:47;;;;;;;5.47;2.20;;;;;;;;;;5033020;28;20033;-70
2024/01/13 00:33:33;;;;;;;11.43;3.25;;;;;;;;;;5033143;28;20041;-70
2024/01/13 00:36:18;;;;;;;11.98;3.05;;;;;;;;;;5032921;28;20029;-71
2024/01/13 00:39:05;;;;;;;8.50;1.92;;;;;;;;;;5019407;28;20081;-70
2024/01/13 00:41:51;;;;;;;4.75;1.90;;;;;;;;;;5033031;28;20030;-71
2024/01/13 00:44:36;;;;;;;8.95;2.00;;;;;;;;;;5032447;28;20018;-70
2024/01/13 00:47:22;;;;;;;13.23;2.75;;;;;;;;;;5030748;28;20487;-70
2024/01/13 00:50:08;;;;;;;7.80;2.38;;;;;;;;;;5033231;28;20026;-71
2024/01/13 00:52:54;;;;;;;11.43;2.10;;;;;;;;;;5033890;28;20494;-71
2024/01/13 00:55:39;;;;;;;13.10;2.53;;;;;;;;;;5033001;28;20048;-70
2024/01/13 00:58:25;;;;;;;12.93;2.33;;;;;;;;;;5032841;28;20079;-70
2024/01/13 01:01:11;;;;;;;11.02;2.33;;;;;;;;;;5031893;28;20018;-71
2024/01/13 01:03:57;;;;;;;6.82;3.03;;;;;;;;;;5033356;28;20453;-70
2024/01/13 01:06:43;;;;;;;4.63;2.00;;;;;;;;;;5032448;28;20029;-71
2024/01/13 01:09:28;;;;;;;2.35;2.03;;;;;;;;;;5031619;28;20033;-71
2024/01/13 01:12:14;;;;;;;3.78;1.48;;;;;;;;;;5030882;28;20029;-71
2024/01/13 01:15:00;;;;;;;7.10;1.73;;;;;;;;;;5032006;28;20068;-71
2024/01/13 01:17:45;;;;;;;10.57;2.22;;;;;;;;;;5032604;28;20025;-70
2024/01/13 01:20:31;;;;;;;7.13;2.17;;;;;;;;;;5017974;28;20433;-70
2024/01/13 01:23:16;;;;;;;8.30;3.03;;;;;;;;;;5032707;28;20056;-71
2024/01/13 01:26:02;;;;;;;7.53;3.22;;;;;;;;;;5031687;28;20112;-69
2024/01/13 01:28:48;;;;;;;7.68;2.00;;;;;;;;;;5031553;28;20403;-71
2024/01/13 01:31:35;;;;;;;5.68;2.20;;;;;;;;;;5032190;28;20022;-70
2024/01/13 01:34:20;;;;;;;2.10;1.73;;;;;;;;;;5030510;28;20465;-70
2024/01/13 01:37:06;;;;;;;6.15;2.10;;;;;;;;;;5032231;28;20408;-70
2024/01/13 01:39:51;;;;;;;5.43;2.00;;;;;;;;;;5032106;28;20021;-71
2024/01/13 01:42:38;;;;;;;5.53;1.83;;;;;;;;;;5032339;28;20022;-71
2024/01/13 01:45:24;;;;;;;6.38;2.10;;;;;;;;;;5031805;28;20025;-71
2024/01/13 01:48:09;;;;;;;5.38;1.95;;;;;;;;;;5013204;28;20105;-71
2024/01/13 01:50:55;;;;;;;3.60;2.13;;;;;;;;;;5016583;28;20022;-71
2024/01/13 01:53:42;;;;;;;6.03;1.98;;;;;;;;;;5012621;28;20021;-71
2024/01/13 01:56:29;;;;;;;7.78;1.77;;;;;;;;;;4998628;28;20546;-70
2024/01/13 01:59:14;;;;;;;3.78;2.05;;;;;;;;;;5013633;28;20037;-71
2024/01/13 02:02:00;;;;;;;6.53;2.00;;;;;;;;;;5026868;28;20025;-71
2024/01/13 02:04:47;;;;;;;5.15;2.20;;;;;;;;;;5032045;28;20025;-71
2024/01/13 02:07:34;;;;;;;4.53;2.13;;;;;;;;;;4999529;28;20407;-71
2024/01/13 02:10:20;;;;;;;16.38;2.38;;;;;;;;;;5011465;28;20446;-70
2024/01/13 02:13:06;;;;;;;3.88;1.77;;;;;;;;;;5003038;28;20413;-70
2024/01/13 02:15:51;;;;;;;3.30;1.75;;;;;;;;;;5014949;28;20063;-71
2024/01/13 02:18:38;;;;;;;8.25;2.38;;;;;;;;;;5031943;28;20060;-71
2024/01/13 02:21:23;;;;;;;11.43;4.05;;;;;;;;;;5018083;28;20021;-71
2024/01/13 02:24:09;;;;;;;2.53;1.90;;;;;;;;;;5032263;28;20065;-70
2024/01/13 02:26:54;;;;;;;11.90;2.47;;;;;;;;;;5030999;28;20022;-71
2024/01/13 02:29:40;;;;;;;14.82;3.20;;;;;;;;;;5031149;28;20021;-71
2024/01/13 02:32:26;;;;;;;10.05;2.35;;;;;;;;;;5030636;28;20022;-70
2024/01/13 02:35:11;;;;;;;17.30;2.78;;;;;;;;;;5031038;28;20017;-70
2024/01/13 02:38:00;;;;;;;7.47;2.28;;;;;;;;;;5033390;28;20033;-71
2024/01/13 02:40:46;;;;;;;8.18;3.08;;;;;;;;;;5031154;28;20060;-71
2024/01/13 02:43:31;;;;;;;8.35;2.60;;;;;;;;;;5030728;28;20057;-70
2024/01/13 02:46:17;;;;;;;9.93;2.83;;;;;;;;;;5034139;28;20060;-71
2024/01/13 02:49:03;;;;;;;12.38;2.20;;;;;;;;;;5036475;28;20022;-71
2024/01/13 02:51:49;;;;;;;13.45;3.05;;;;;;;;;;5036525;28;20021;-71
2024/01/13 02:54:34;;;;;;;6.55;2.25;;;;;;;;;;5035280;28;20025;-71
2024/01/13 02:57:20;;;;;;;11.25;2.22;;;;;;;;;;5035991;28;20025;-71
2024/01/13 03:00:08;;;;;;;4.70;1.83;;;;;;;;;;5036655;28;20076;-71
2024/01/13 03:02:53;;;;;;;13.82;2.45;;;;;;;;;;5035600;28;20021;-71
2024/01/13 03:05:39;;;;;;;5.40;2.53;;;;;;;;;;5036375;28;20059;-71
2024/01/13 03:08:25;;;;;;;4.90;2.78;;;;;;;;;;5034418;28;20092;-70
2024/01/13 03:11:11;;;;;;;10.43;3.42;;;;;;;;;;5033821;28;20479;-70
2024/01/13 03:13:58;;;;;;;14.63;3.17;;;;;;;;;;5033192;28;20399;-70
2024/01/13 03:16:43;;;;;;;7.43;2.72;;;;;;;;;;5033917;28;20152;-71
2024/01/13 03:19:29;;;;;;;20.20;2.33;;;;;;;;;;5033645;28;20040;-71
2024/01/13 03:22:15;;;;;;;13.07;3.70;;;;;;;;;;5035347;28;20025;-70
2024/01/13 03:25:00;;;;;;;18.40;3.45;;;;;;;;;;5036367;28;20026;-70
2024/01/13 03:27:46;;;;;;;9.25;2.30;;;;;;;;;;5035814;28;20104;-71
2024/01/13 03:30:32;;;;;;;4.60;2.45;;;;;;;;;;5035610;28;20368;-70
2024/01/13 03:33:17;;;;;;;2.67;2.17;;;;;;;;;;5035349;28;20022;-70
2024/01/13 03:36:03;;;;;;;8.30;2.88;;;;;;;;;;5033687;28;20112;-71
2024/01/13 03:38:49;;;;;;;9.25;2.65;;;;;;;;;;5035489;28;20018;-70
2024/01/13 03:41:35;;;;;;;12.05;2.67;;;;;;;;;;5035755;28;20013;-70
2024/01/13 03:44:20;;;;;;;6.50;2.10;;;;;;;;;;5034546;28;20506;-70
2024/01/13 03:47:06;;;;;;;2.28;1.38;;;;;;;;;;5034958;28;20026;-70
2024/01/13 03:49:52;;;;;;;11.65;2.00;;;;;;;;;;5035417;28;20028;-71
2024/01/13 03:52:37;;;;;;;10.38;3.05;;;;;;;;;;5033171;28;20036;-70
2024/01/13 03:55:23;;;;;;;6.70;2.13;;;;;;;;;;5033081;28;20466;-70
2024/01/13 03:58:11;;;;;;;2.63;2.20;;;;;;;;;;5032891;28;20025;-70
2024/01/13 04:00:57;;;;;;;7.22;1.80;;;;;;;;;;5035444;28;20022;-70
2024/01/13 04:03:43;;;;;;;2.70;1.48;;;;;;;;;;5029929;28;20060;-70
2024/01/13 04:06:29;;;;;;;9.40;2.25;;;;;;;;;;5032299;28;20017;-70
2024/01/13 04:09:14;;;;;;;8.10;1.88;;;;;;;;;;5033648;28;20483;-70
2024/01/13 04:12:00;;;;;;;8.02;2.00;;;;;;;;;;5027445;28;20032;-70
2024/01/13 04:14:45;;;;;;;8.70;2.47;;;;;;;;;;5021806;28;20024;-70
2024/01/13 04:17:31;;;;;;;7.78;1.60;;;;;;;;;;5033059;28;20036;-70
2024/01/13 04:20:17;;;;;;;6.60;2.17;;;;;;;;;;5034154;28;20087;-71
2024/01/13 04:23:03;;;;;;;8.75;2.30;;;;;;;;;;5032101;28;20023;-70
2024/01/13 04:25:48;;;;;;;5.10;1.88;;;;;;;;;;5033563;28;20506;-70
2024/01/13 04:28:34;;;;;;;4.45;1.60;;;;;;;;;;5031557;28;20030;-70
2024/01/13 04:31:20;;;;;;;13.18;1.60;;;;;;;;;;5014300;28;20022;-70
2024/01/13 04:34:05;;;;;;;4.78;1.85;;;;;;;;;;5021382;28;20025;-70
2024/01/13 04:36:51;;;;;;;6.47;1.88;;;;;;;;;;5013407;28;20065;-70
2024/01/13 04:39:37;;;;;;;2.67;1.25;;;;;;;;;;5013827;28;20139;-71
2024/01/13 04:42:22;;;;;;;5.45;1.65;;;;;;;;;;5014328;28;20022;-70
2024/01/13 04:45:08;;;;;;;4.90;1.80;;;;;;;;;;5014294;28;20018;-70
2024/01/13 04:47:54;;;;;;;4.85;1.33;;;;;;;;;;5013027;28;20018;-70
2024/01/13 04:50:39;;;;;;;7.10;1.35;;;;;;;;;;5018661;28;20482;-70
2024/01/13 04:53:25;;;;;;;7.43;1.55;;;;;;;;;;5030222;28;20033;-70
2024/01/13 04:56:10;;;;;;;4.88;1.52;;;;;;;;;;5031213;28;20022;-70
2024/01/13 04:58:56;;;;;;;5.63;1.85;;;;;;;;;;5032657;28;20510;-70
2024/01/13 05:01:42;;;;;;;4.78;1.92;;;;;;;;;;5033510;28;20048;-70
2024/01/13 05:04:27;;;;;;;5.90;2.08;;;;;;;;;;5031575;28;20029;-70
2024/01/13 05:07:13;;;;;;;7.22;1.95;;;;;;;;;;5033083;28;20068;-70
2024/01/13 05:09:59;;;;;;;9.45;2.38;;;;;;;;;;5031289;28;20030;-70
2024/01/13 05:12:44;;;;;;;13.20;2.40;;;;;;;;;;5032427;28;20025;-70
2024/01/13 05:15:30;;;;;;;13.55;1.88;;;;;;;;;;5031197;28;20036;-70
2024/01/13 05:18:15;;;;;;;5.10;2.65;;;;;;;;;;5027471;28;20494;-70
2024/01/13 05:21:01;;;;;;;10.93;1.75;;;;;;;;;;5032811;28;20071;-70
2024/01/13 05:23:47;;;;;;;5.93;1.98;;;;;;;;;;5031513;28;20076;-70
2024/01/13 05:26:32;;;;;;;6.30;1.95;;;;;;;;;;5030251;28;20018;-71
2024/01/13 05:29:18;;;;;;;4.82;1.73;;;;;;;;;;5029236;28;20478;-71
2024/01/13 05:32:05;;;;;;;8.70;1.52;;;;;;;;;;5030818;28;20108;-70
2024/01/13 05:34:50;;;;;;;4.55;2.40;;;;;;;;;;5032705;28;20037;-70
2024/01/13 05:37:36;;;;;;;6.68;2.00;;;;;;;;;;5031731;28;20037;-70
2024/01/13 05:40:22;;;;;;;8.88;2.15;;;;;;;;;;5031320;28;20479;-70
2024/01/13 05:43:07;;;;;;;4.50;2.58;;;;;;;;;;5032569;28;20397;-70
2024/01/13 05:45:53;;;;;;;9.98;1.73;;;;;;;;;;5028849;28;20029;-70
2024/01/13 05:48:39;;;;;;;7.50;1.83;;;;;;;;;;5032255;28;20022;-70
2024/01/13 05:51:24;;;;;;;6.07;2.70;;;;;;;;;;5031522;28;20022;-70
2024/01/13 05:54:10;;;;;;;12.48;2.50;;;;;;;;;;5031639;28;20032;-71
2024/01/13 05:56:55;;;;;;;9.05;1.85;;;;;;;;;;5030959;28;20156;-70
2024/01/13 05:59:41;;;;;;;4.38;1.40;;;;;;;;;;5032473;28;20022;-70
2024/01/13 06:02:27;;;;;;;9.50;2.30;;;;;;;;;;5031546;28;20024;-70
2024/01/13 06:05:12;;;;;;;4.63;1.50;;;;;;;;;;5030694;28;20032;-70
2024/01/13 06:07:58;;;;;;;9.15;2.25;;;;;;;;;;5033292;28;20025;-70
2024/01/13 06:10:44;;;;;;;6.15;2.67;;;;;;;;;;5032281;28;20415;-71
2024/01/13 06:13:29;;;;;;;7.78;2.35;;;;;;;;;;5030604;28;20811;-70
2024/01/13 06:16:15;;;;;;;10.35;2.88;;;;;;;;;;5027768;28;20112;-70
2024/01/13 06:19:02;;;;;;;14.60;3.33;;;;;;;;;;5030556;28;20031;-70
2024/01/13 06:21:48;;;;;;;5.53;2.20;;;;;;;;;;5035030;28;20022;-70
2024/01/13 06:24:33;;;;;;;5.47;2.38;;;;;;;;;;5034141;28;20127;-70
2024/01/13 06:27:19;;;;;;;8.82;2.65;;;;;;;;;;5034657;28;20026;-71
2024/01/13 06:30:05;;;;;;;15.45;2.60;;;;;;;;;;5017693;28;20037;-71
2024/01/13 06:32:51;;;;;;;20.83;2.67;;;;;;;;;;5034994;28;20399;-70
2024/01/13 06:35:36;;;;;;;12.65;3.25;;;;;;;;;;5035842;28;20060;-70
2024/01/13 06:38:22;;;;;;;12.10;3.60;;;;;;;;;;5035596;28;20025;-70
2024/01/13 06:41:08;;;;;;;11.95;3.40;;;;;;;;;;5033969;28;20120;-71
2024/01/13 06:43:53;;;;;;;8.07;3.58;;;;;;;;;;5034669;28;20031;-70
2024/01/13 06:46:39;;;;;;;9.45;2.97;;;;;;;;;;5035366;28;20029;-71
2024/01/13 06:49:24;;;;;;;4.78;2.58;;;;;;;;;;5033853;28;20388;-70
2024/01/13 06:52:12;;;;;;;10.52;2.65;;;;;;;;;;5032718;28;20052;-71
2024/01/13 06:54:58;;;;;;;11.82;3.22;;;;;;;;;;5035522;28;20025;-70
2024/01/13 06:57:43;;;;;;;8.48;3.53;;;;;;;;;;5034864;28;20566;-70
2024/01/13 07:00:29;;;;;;;25.55;3.35;;;;;;;;;;5033989;28;20021;-70
2024/01/13 07:03:14;;;;;;;7.35;2.83;;;;;;;;;;5023250;28;20024;-70
2024/01/13 07:06:00;;;;;;;6.55;2.33;;;;;;;;;;5035657;28;20029;-70
2024/01/13 07:08:46;;;;;;;14.15;2.88;;;;;;;;;;5020217;28;20052;-70
2024/01/13 07:11:31;;;;;;;13.18;2.92;;;;;;;;;;5033352;28;20021;-70
2024/01/13 07:14:17;;;;;;;8.93;2.75;;;;;;;;;;5033876;28;20033;-70
2024/01/13 07:17:03;;;;;;;9.68;2.92;;;;;;;;;;5033418;28;20242;-70
2024/01/13 07:19:49;;;;;;;12.00;2.65;;;;;;;;;;5034913;28;20539;-70
2024/01/13 07:22:34;;;;;;;8.63;2.67;;;;;;;;;;5035891;28;20031;-71
2024/01/13 07:25:20;;;;;;;10.82;2.97;;;;;;;;;;5034545;28;20032;-70
2024/01/13 07:28:06;;;;;;;8.13;2.90;;;;;;;;;;5035465;28;20482;-70
2024/01/13 07:30:51;;;;;;;17.67;3.25;;;;;;;;;;5034419;28;20033;-70
2024/01/13 07:33:37;;;;;;;11.57;2.45;;;;;;;;;;5033555;28;20091;-71
2024/01/13 07:36:23;;;;;;;6.88;2.28;;;;;;;;;;5035002;28;20158;-70
2024/01/13 07:39:09;;;;;;;10.38;3.17;;;;;;;;;;5032886;28;20021;-70
2024/01/13 07:41:55;;;;;;;15.43;3.20;;;;;;;;;;5034734;28;20052;-70
2024/01/13 07:44:43;;;;;;;14.65;2.90;;;;;;;;;;5033472;28;20116;-70
2024/01/13 07:47:29;;;;;;;14.32;3.13;;;;;;;;;;5033165;28;20407;-71
2024/01/13 07:50:15;;;;;;;5.30;2.72;;;;;;;;;;5033454;28;20037;-70
2024/01/13 07:53:00;;;;;;;12.40;3.10;;;;;;;;;;5034356;28;20033;-70
2024/01/13 07:55:46;;;;;;;14.63;3.42;;;;;;;;;;5033832;28;20049;-71
2024/01/13 07:58:32;;;;;;;11.65;3.40;;;;;;;;;;5032633;28;20104;-70
2024/01/13 08:01:18;;;;;;;8.65;3.60;;;;;;;;;;5032866;28;20486;-70
2024/01/13 08:04:04;;;;;;;10.10;3.28;;;;;;;;;;5012786;28;20069;-70
2024/01/13 08:06:49;;;;;;;10.02;3.53;;;;;;;;;;5015860;28;20026;-70
2024/01/13 08:09:35;;;;;;;11.63;3.22;;;;;;;;;;5035000;28;20025;-71
2024/01/13 08:12:20;;;;;;;16.52;4.22;;;;;;;;;;5031840;28;20033;-70
2024/01/13 08:15:07;;;;;;;18.23;3.38;;;;;;;;;;5031208;28;20542;-70
2024/01/13 08:17:52;;;;;;;18.45;3.50;;;;;;;;;;5029403;28;20033;-70
2024/01/13 08:20:38;;;;;;;20.33;4.45;;;;;;;;;;5026680;28;20022;-71
2024/01/13 08:23:24;;;;;;;17.60;3.83;;;;;;;;;;5034767;28;20032;-70
2024/01/13 08:26:09;;;;;;;10.40;3.08;;;;;;;;;;5032038;28;20017;-70
2024/01/13 08:28:55;;;;;;;11.05;3.35;;;;;;;;;;5032688;28;20056;-70
2024/01/13 08:31:41;;;;;;;8.30;3.42;;;;;;;;;;5033286;28;20159;-71
2024/01/13 08:34:28;;;;;;;13.30;3.08;;;;;;;;;;5031856;28;20040;-70
2024/01/13 08:37:14;;;;;;;15.55;3.85;;;;;;;;;;5061897;23;20037;-69
2024/01/13 08:40:00;;;;;;;13.70;5.20;;;;;;;;;;5053245;28;20033;-70
2024/01/13 08:42:48;;;;;;;15.95;3.83;;;;;;;;;;5048779;28;20246;-69
2024/01/13 08:45:35;;;;;;;15.07;3.83;;;;;;;;;;5039244;28;20032;-69
2024/01/13 08:48:21;;;;;;;10.43;3.17;;;;;;;;;;5048529;28;20021;-69
2024/01/13 08:51:08;;;;;;;7.82;2.92;;;;;;;;;;5052041;28;20565;-70
2024/01/13 08:53:53;;;;;;;19.05;3.45;;;;;;;;;;5054148;28;20035;-70
2024/01/13 08:56:39;;;;;;;9.15;3.13;;;;;;;;;;5053705;28;20486;-69
2024/01/13 08:59:24;;;;;;;14.02;2.80;;;;;;;;;;5053139;28;20505;-68
2024/01/13 09:02:10;;;;;;;7.47;2.70;;;;;;;;;;5057046;28;20104;-69
2024/01/13 09:04:56;;;;;;;11.02;2.78;;;;;;;;;;5051979;28;20021;-69
2024/01/13 09:07:41;;;;;;;9.45;3.13;;;;;;;;;;5056790;28;20021;-69
2024/01/13 09:10:27;;;;;;;7.53;2.45;;;;;;;;;;5051640;28;20025;-69
2024/01/13 09:13:13;;;;;;;14.52;3.25;;;;;;;;;;5059952;28;20482;-69
2024/01/13 09:16:00;;;;;;;13.80;2.90;;;;;;;;;;5051311;28;20160;-69
2024/01/13 09:18:46;;;;;;;7.97;3.17;;;;;;;;;;5051387;28;20025;-69
2024/01/13 09:21:31;;;;;;;8.40;2.20;;;;;;;;;;5064307;28;20028;-69
2024/01/13 09:24:17;;;;;;;3.92;2.47;;;;;;;;;;5072175;28;20025;-69
2024/01/13 09:27:03;;;;;;;16.48;2.75;;;;;;;;;;5059779;28;20033;-69
2024/01/13 09:29:50;;;;;;;7.15;2.45;;;;;;;;;;5053127;28;20033;-69
2024/01/13 09:32:35;;;;;;;9.02;2.50;;;;;;;;;;5055501;28;20021;-69
2024/01/13 09:35:21;;;;;;;4.25;2.25;;;;;;;;;;5072159;28;20075;-69
2024/01/13 09:38:07;;;;;;;8.43;2.65;;;;;;;;;;5068495;28;20028;-68
2024/01/13 09:40:53;;;;;;;8.73;2.78;;;;;;;;;;5070088;28;20506;-69
2024/01/13 09:43:52;;;;;;;15.52;2.28;;;;;;;;;;5072144;28;20024;-68
2024/01/13 09:46:38;;;;;;;7.20;3.05;;;;;;;;;;5051799;28;20398;-69
2024/01/13 09:49:26;;;;;;;44.80;15.45;;;;;;;;;;5053219;28;20722;-69
2024/01/13 09:52:13;;;;;;;13.80;3.15;;;;;;;;;;5053126;28;20110;-69
2024/01/13 09:55:03;;;;;;;8.80;3.88;;;;;;;;;;5051997;28;20032;-69
2024/01/13 09:57:48;;;;;;;9.55;2.60;;;;;;;;;;5055289;28;20525;-69
2024/01/13 10:00:34;;;;;;;7.85;3.17;;;;;;;;;;5054785;28;20025;-69
2024/01/13 10:03:21;;;;;;;7.30;3.33;;;;;;;;;;5063465;28;20016;-69
2024/01/13 10:06:07;;;;;;;6.18;2.58;;;;;;;;;;5045339;28;20047;-69
2024/01/13 10:08:53;;;;;;;3.97;2.15;;;;;;;;;;5051994;28;20112;-69
2024/01/13 10:11:38;;;;;;;7.38;1.90;;;;;;;;;;5036896;28;20025;-69
2024/01/13 10:14:24;;;;;;;4.40;1.67;;;;;;;;;;5061200;28;20060;-69
2024/01/13 10:17:11;;;;;;;3.92;1.77;;;;;;;;;;5073900;28;20044;-69
2024/01/13 10:19:56;;;;;;;2.25;1.63;;;;;;;;;;5055158;28;20552;-69
2024/01/13 10:22:42;;;;;;;6.28;1.42;;;;;;;;;;5026415;28;20498;-69
2024/01/13 10:25:28;;;;;;;20.38;7.82;;;;;;;;;;5056362;28;20486;-69
2024/01/13 10:28:14;;;;;;;6.15;2.50;;;;;;;;;;5055473;28;20025;-69
2024/01/13 10:31:00;;;;;;;9.35;3.92;;;;;;;;;;5055799;28;20031;-69
2024/01/13 10:33:48;;;;;;;7.05;2.70;;;;;;;;;;5042055;28;20109;-69
2024/01/13 10:36:33;;;;;;;10.63;2.90;;;;;;;;;;5053278;28;20021;-69
2024/01/13 10:39:19;;;;;;;8.35;2.50;;;;;;;;;;5043855;28;20028;-69
2024/01/13 10:42:10;;;;;;;9.32;2.58;;;;;;;;;;5022226;28;20075;-69
2024/01/13 10:45:00;;;;;;;5.43;2.30;;;;;;;;;;5052621;28;20060;-69
2024/01/13 10:47:51;;;;;;;9.75;2.95;;;;;;;;;;5055890;28;20398;-69
2024/01/13 10:50:38;;;;;;;11.13;2.67;;;;;;;;;;5036409;28;20025;-69
2024/01/13 10:53:27;;;;;;;11.38;2.80;;;;;;;;;;5022061;28;20065;-68
2024/01/13 10:56:14;;;;;;;13.20;2.88;;;;;;;;;;5070006;28;20029;-69
2024/01/13 10:59:00;;;;;;;18.17;2.58;;;;;;;;;;5074697;28;20017;-69
2024/01/13 11:01:46;;;;;;;12.27;2.50;;;;;;;;;;5042236;28;20100;-69
2024/01/13 11:04:33;;;;;;;11.20;2.75;;;;;;;;;;5053713;28;20087;-69
2024/01/13 11:07:19;;;;;;;13.85;3.30;;;;;;;;;;5062920;28;20033;-69
2024/01/13 11:10:09;;;;;;;20.10;3.53;;;;;;;;;;5074383;28;20042;-69
2024/01/13 11:13:26;;;;;;;12.98;2.67;;;;;;;;;;5067027;28;20028;-70
2024/01/13 11:16:18;;;;;;;12.07;2.60;;;;;;;;;;5072573;28;20052;-69
2024/01/13 11:19:06;;;;;;;8.27;1.85;;;;;;;;;;5048625;28;20028;-69
2024/01/13 11:21:52;;;;;;;21.35;3.42;;;;;;;;;;5040234;28;20021;-69
2024/01/13 11:24:37;;;;;;;11.02;3.30;;;;;;;;;;5056791;28;20032;-68
2024/01/13 11:27:23;;;;;;;14.40;2.22;;;;;;;;;;5038643;28;20028;-69
2024/01/13 11:30:11;;;;;;;20.67;3.70;;;;;;;;;;5053512;28;20132;-69
2024/01/13 11:32:56;;;;;;;15.32;3.22;;;;;;;;;;5019368;28;20025;-69
2024/01/13 11:35:48;;;;;;;19.48;3.47;;;;;;;;;;5040114;28;20167;-69
2024/01/13 11:38:34;;;;;;;10.23;2.53;;;;;;;;;;5054481;28;20035;-69
2024/01/13 11:41:19;;;;;;;26.77;5.82;;;;;;;;;;5053886;28;20104;-69
2024/01/13 11:44:07;;;;;;;21.88;4.05;;;;;;;;;;5054890;28;20028;-69
2024/01/13 11:46:57;;;;;;;16.90;3.53;;;;;;;;;;5039346;28;20525;-69
2024/01/13 11:49:44;;;;;;;33.50;6.28;;;;;;;;;;5054569;28;20029;-70
2024/01/13 11:52:31;;;;;;;29.52;4.53;;;;;;;;;;5054147;28;20025;-69
2024/01/13 11:55:16;;;;;;;17.33;3.22;;;;;;;;;;5038514;28;20029;-69
2024/01/13 11:58:02;;;;;;;16.95;3.17;;;;;;;;;;5034370;28;20521;-69
2024/01/13 12:00:48;;;;;;;19.30;3.38;;;;;;;;;;5036376;28;20108;-69
2024/01/13 12:03:33;;;;;;;15.60;3.35;;;;;;;;;;5038698;28;20359;-69
2024/01/13 12:06:19;;;;;;;22.80;3.90;;;;;;;;;;5058089;28;20024;-69
2024/01/13 12:09:05;;;;;;;15.77;3.30;;;;;;;;;;5037720;28;20025;-69
2024/01/13 12:11:53;;;;;;;17.83;3.38;;;;;;;;;;5061797;28;20448;-69
2024/01/13 12:14:38;;;;;;;14.68;3.78;;;;;;;;;;5058493;28;20037;-69
2024/01/13 12:17:24;;;;;;;15.95;3.50;;;;;;;;;;5057207;28;20402;-69
2024/01/13 12:20:10;;;;;;;14.85;3.95;;;;;;;;;;5054073;28;20025;-68
2024/01/13 12:22:55;;;;;;;11.93;3.35;;;;;;;;;;5058336;28;20097;-69
2024/01/13 12:25:41;;;;;;;20.17;4.95;;;;;;;;;;5068480;28;20107;-69
2024/01/13 12:28:26;;;;;;;17.63;4.80;;;;;;;;;;5052551;28;20032;-68
2024/01/13 12:31:12;;;;;;;8.13;2.78;;;;;;;;;;5053921;28;20049;-69
2024/01/13 12:34:11;;;;;;;19.25;3.22;;;;;;;;;;5058404;28;20024;-69
2024/01/13 12:36:57;;;;;;;17.10;2.50;;;;;;;;;;5049352;28;20062;-69
2024/01/13 12:39:43;;;;;;;11.98;2.47;;;;;;;;;;5053358;28;20242;-69
2024/01/13 12:42:29;;;;;;;17.42;4.53;;;;;;;;;;5036930;28;20425;-69
2024/01/13 12:45:16;;;;;;;15.98;2.58;;;;;;;;;;5056942;28;20453;-69
2024/01/13 12:48:02;;;;;;;18.73;2.70;;;;;;;;;;5052301;28;20044;-69
2024/01/13 12:50:48;;;;;;;20.42;2.67;;;;;;;;;;5057291;28;20383;-69
2024/01/13 12:53:34;;;;;;;12.35;3.33;;;;;;;;;;5072575;28;20125;-69
2024/01/13 12:56:20;;;;;;;9.52;2.05;;;;;;;;;;5018527;28;20065;-69
2024/01/13 12:59:05;;;;;;;18.85;3.50;;;;;;;;;;5032095;28;20108;-69
2024/01/13 13:01:51;;;;;;;7.70;2.70;;;;;;;;;;5051260;28;20017;-69
2024/01/13 13:04:37;;;;;;;6.07;2.83;;;;;;;;;;5064717;28;20032;-70
2024/01/13 13:07:25;;;;;;;10.30;2.30;;;;;;;;;;5072604;28;20489;-69
2024/01/13 13:10:10;;;;;;;15.35;2.13;;;;;;;;;;5046455;28;20048;-69
2024/01/13 13:12:59;;;;;;;13.60;2.05;;;;;;;;;;5052935;28;20021;-69
2024/01/13 13:15:45;;;;;;;10.30;2.58;;;;;;;;;;5062758;28;20056;-69
2024/01/13 13:18:30;;;;;;;22.67;3.08;;;;;;;;;;5072376;28;20028;-69
2024/01/13 13:21:16;;;;;;;14.93;3.42;;;;;;;;;;5059001;28;20049;-69
2024/01/13 13:24:04;;;;;;;15.10;2.67;;;;;;;;;;5052963;28;20070;-68
2024/01/13 13:26:51;;;;;;;19.05;3.67;;;;;;;;;;5056893;28;20027;-69
2024/01/13 13:29:36;;;;;;;19.23;3.83;;;;;;;;;;5071436;28;20554;-69
2024/01/13 13:32:22;;;;;;;4.85;1.88;;;;;;;;;;5063395;28;20025;-68
2024/01/13 13:35:08;;;;;;;21.95;3.42;;;;;;;;;;5033036;28;20026;-69
2024/01/13 13:37:55;;;;;;;20.52;4.07;;;;;;;;;;5038774;28;20485;-68
2024/01/13 13:40:41;;;;;;;13.55;3.22;;;;;;;;;;5053446;28;20640;-69
2024/01/13 13:43:28;;;;;;;10.98;2.45;;;;;;;;;;5053457;28;20029;-68
2024/01/13 13:46:14;;;;;;;10.32;2.50;;;;;;;;;;5050975;28;20060;-69
2024/01/13 13:49:00;;;;;;;8.05;1.92;;;;;;;;;;5053567;28;20055;-69
2024/01/13 13:51:49;;;;;;;19.27;3.58;;;;;;;;;;5052927;28;20498;-69
2024/01/13 13:54:35;;;;;;;15.02;2.92;;;;;;;;;;5052248;28;20401;-68
2024/01/13 13:57:21;;;;;;;11.95;2.55;;;;;;;;;;5052883;28;20024;-68
2024/01/13 14:00:07;;;;;;;13.15;2.63;;;;;;;;;;5052109;28;20111;-69
2024/01/13 14:02:56;;;;;;;21.10;3.70;;;;;;;;;;5041848;28;20491;-69
2024/01/13 14:05:42;;;;;;;19.45;3.35;;;;;;;;;;5033039;28;20021;-69
2024/01/13 14:08:28;;;;;;;13.13;2.75;;;;;;;;;;5065487;28;20024;-69
2024/01/13 14:11:13;;;;;;;13.15;3.13;;;;;;;;;;5063438;28;20024;-69
2024/01/13 14:13:59;;;;;;;14.65;2.67;;;;;;;;;;5071963;28;20402;-69
2024/01/13 14:16:45;;;;;;;14.82;2.40;;;;;;;;;;5044610;28;20067;-69
2024/01/13 14:19:31;;;;;;;17.27;3.88;;;;;;;;;;5051811;28;20021;-69
2024/01/13 14:22:17;;;;;;;10.68;3.53;;;;;;;;;;5052575;28;20021;-69
2024/01/13 14:25:03;;;;;;;16.58;3.10;;;;;;;;;;5069636;28;20405;-68
2024/01/13 14:27:49;;;;;;;17.40;3.67;;;;;;;;;;5066942;28;20063;-69
2024/01/13 14:30:35;;;;;;;25.70;4.50;;;;;;;;;;5031724;28;20026;-68
2024/01/13 14:33:20;;;;;;;7.32;3.33;;;;;;;;;;5053052;28;20044;-69
2024/01/13 14:36:07;;;;;;;18.17;4.63;;;;;;;;;;5055744;28;20386;-68
2024/01/13 14:38:52;;;;;;;18.98;3.67;;;;;;;;;;5053015;22;20057;-67
2024/01/13 14:41:38;;;;;;;18.83;3.17;;;;;;;;;;5014300;28;20022;-67
2024/01/13 14:44:24;;;;;;;21.90;5.03;;;;;;;;;;5031050;28;20056;-67
2024/01/13 14:47:09;;;;;;;8.18;2.17;;;;;;;;;;5036355;28;20025;-67
2024/01/13 14:49:55;;;;;;;11.60;3.50;;;;;;;;;;5047747;28;20026;-67
2024/01/13 14:52:41;;;;;;;14.00;3.88;;;;;;;;;;5035043;28;20064;-67
2024/01/13 14:55:26;;;;;;;18.05;4.45;;;;;;;;;;5048353;28;20442;-67
2024/01/13 14:58:13;;;;;;;17.10;4.22;;;;;;;;;;5055319;28;20020;-67
2024/01/13 15:00:58;;;;;;;12.02;2.53;;;;;;;;;;5050282;28;20026;-67
2024/01/13 15:03:44;;;;;;;13.00;2.58;;;;;;;;;;5035179;28;20032;-67
2024/01/13 15:06:30;;;;;;;7.07;2.00;;;;;;;;;;5024713;28;20014;-67
2024/01/13 15:09:16;;;;;;;14.25;2.92;;;;;;;;;;5035119;28;20449;-67
2024/01/13 15:12:02;;;;;;;8.98;2.45;;;;;;;;;;5041137;28;20030;-67
2024/01/13 15:14:47;;;;;;;15.15;3.67;;;;;;;;;;5035463;28;20151;-67
2024/01/13 15:17:33;;;;;;;13.35;3.08;;;;;;;;;;5040977;28;20108;-67
2024/01/13 15:20:19;;;;;;;15.52;3.08;;;;;;;;;;5034644;28;20018;-67
2024/01/13 15:23:04;;;;;;;8.70;2.80;;;;;;;;;;5043573;28;20025;-67
2024/01/13 15:25:50;;;;;;;15.32;3.47;;;;;;;;;;5054874;28;20024;-67
2024/01/13 15:28:36;;;;;;;9.15;2.83;;;;;;;;;;5053940;28;20423;-67
2024/01/13 15:31:22;;;;;;;15.35;3.10;;;;;;;;;;5054747;28;20486;-67
2024/01/13 15:34:07;;;;;;;14.27;2.83;;;;;;;;;;5054978;28;20033;-67
2024/01/13 15:36:53;;;;;;;21.88;4.32;;;;;;;;;;5049112;28;20060;-67
2024/01/13 15:39:39;;;;;;;15.43;3.45;;;;;;;;;;5035044;28;20037;-67
2024/01/13 15:42:27;;;;;;;9.00;3.20;;;;;;;;;;5039794;28;20013;-67
2024/01/13 15:45:13;;;;;;;17.15;3.22;;;;;;;;;;5034257;28;20056;-67
2024/01/13 15:47:59;;;;;;;24.75;4.13;;;;;;;;;;5040402;28;20059;-67
2024/01/13 15:50:45;;;;;;;22.23;4.20;;;;;;;;;;5019745;28;20438;-67
2024/01/13 15:53:30;;;;;;;22.23;3.42;;;;;;;;;;5036460;28;20025;-67
2024/01/13 15:56:16;;;;;;;16.52;3.28;;;;;;;;;;5052250;28;20493;-67
2024/01/13 15:59:03;;;;;;;19.23;3.63;;;;;;;;;;5040293;28;20490;-67
2024/01/13 16:01:48;;;;;;;11.80;3.83;;;;;;;;;;5038947;28;20022;-67
2024/01/13 16:04:34;;;;;;;10.85;3.15;;;;;;;;;;5046899;28;20474;-67
2024/01/13 16:07:20;;;;;;;8.48;2.55;;;;;;;;;;5035406;28;20063;-67
2024/01/13 16:10:06;;;;;;;18.45;2.58;;;;;;;;;;5038893;28;20048;-67
2024/01/13 16:12:52;;;;;;;19.10;2.97;;;;;;;;;;5035117;28;20025;-67
2024/01/13 16:15:37;;;;;;;13.43;3.63;;;;;;;;;;5053761;28;20025;-67
2024/01/13 16:18:23;;;;;;;20.05;2.67;;;;;;;;;;5053645;28;20032;-67
2024/01/13 16:21:09;;;;;;;11.32;2.25;;;;;;;;;;5043655;28;20075;-67
2024/01/13 16:23:55;;;;;;;15.02;3.80;;;;;;;;;;5033532;28;20031;-67
2024/01/13 16:26:41;;;;;;;15.93;3.63;;;;;;;;;;5041233;28;20018;-67